Morgan Hill, California
Current Conditions -  °F | °C
As of 5:15 PM on Monday 20 Oct 2014 (Local Time) from KE16 Reporting Station
Overcast Overcast  
Wind Chill: 63°   Ceiling: 4700
Heat Index: 63°   Visibility: 10mi
Dew Point: 57°   Wind: 3mph
Humidity: 82%   Direction: 270°W
Pressure: 29.99"   Gusts: NA
Location:  37.13°N, 121.66°W
Report Text: KE16 210015Z AUTO 27003KT 10SM SCT038 OVC047 17/14 A2999 RMK AO2
Loading
Personal Weather Stations






























Interactive Weather Map
Tropical Storm Tracking
New forecast layout! Learn more

10-Day Weather Forecast

Advertisements
Track Severe Weather on mobile